Time;durP1;ratioP1;P1;durP2;ratioP2;P2;SDS_P1;SDS_P2;PMS_P1;PMS_P2;Temp;Humidity;BMP_temperature;BMP_pressure;BME280_temperature;BME280_humidity;BME280_pressure;Samples;Min_cycle;Max_cycle;Signal;HPM_P1;HPM_P2
2023/07/08 00:02:14;;;;;;;9.17;4.37;;;20.50;95.10;;;;;;4992222;28;20464;-69
2023/07/08 00:04:43;;;;;;;13.77;4.33;;;20.50;95.40;;;;;;4992360;28;20957;-69
2023/07/08 00:07:13;;;;;;;9.07;4.50;;;20.50;95.70;;;;;;4992436;28;20484;-69
2023/07/08 00:09:42;;;;;;;9.40;4.70;;;20.50;96.00;;;;;;4992207;28;20499;-69
2023/07/08 00:12:12;;;;;;;10.00;5.50;;;20.50;96.20;;;;;;4992189;28;20460;-69
2023/07/08 00:14:39;;;;;;;7.70;4.13;;;20.60;96.10;;;;;;4990999;28;20519;-69
2023/07/08 00:17:12;;;;;;;7.47;4.70;;;20.60;96.20;;;;;;4992022;28;20522;-69
2023/07/08 00:19:40;;;;;;;8.20;4.30;;;20.50;96.40;;;;;;4992076;28;20484;-69
2023/07/08 00:22:13;;;;;;;8.07;4.50;;;20.30;97.30;;;;;;4992017;28;20558;-69
2023/07/08 00:24:40;;;;;;;7.77;4.23;;;20.40;96.80;;;;;;4992054;28;20555;-71
2023/07/08 00:27:12;;;;;;;12.13;5.47;;;20.50;96.70;;;;;;4991797;28;20484;-71
2023/07/08 00:29:39;;;;;;;8.73;4.60;;;20.60;95.30;;;;;;4992071;28;20460;-71
2023/07/08 00:32:12;;;;;;;7.50;4.37;;;20.60;95.40;;;;;;4991868;28;20511;-71
2023/07/08 00:34:39;;;;;;;8.20;4.37;;;20.40;95.90;;;;;;4992040;28;20521;-71
2023/07/08 00:37:06;;;;;;;7.00;3.80;;;20.40;95.80;;;;;;4991638;28;20463;-71
2023/07/08 00:39:35;;;;;;;11.60;4.40;;;20.30;96.30;;;;;;4990725;28;20548;-71
2023/07/08 00:42:12;;;;;;;7.93;3.87;;;20.00;96.80;;;;;;4990641;28;20460;-71
2023/07/08 00:44:40;;;;;;;9.43;4.83;;;20.00;97.20;;;;;;4992060;28;20506;-71
2023/07/08 00:47:11;;;;;;;7.50;4.00;;;19.80;98.00;;;;;;4991620;28;20484;-71
2023/07/08 00:49:43;;;;;;;10.30;4.80;;;19.80;98.00;;;;;;4990647;28;20452;-71
2023/07/08 00:52:22;;;;;;;11.13;4.30;;;19.80;98.00;;;;;;4991919;28;21074;-71
2023/07/08 00:55:01;;;;;;;8.77;4.47;;;19.70;98.00;;;;;;4991942;28;20460;-71
2023/07/08 00:57:33;;;;;;;7.80;4.00;;;19.50;98.00;;;;;;4990430;28;20464;-71
2023/07/08 01:00:05;;;;;;;10.00;4.20;;;19.60;98.00;;;;;;4991801;28;20970;-71
2023/07/08 01:02:36;;;;;;;10.40;4.97;;;19.60;98.00;;;;;;4992219;28;20510;-71
2023/07/08 01:05:07;;;;;;;10.97;5.23;;;19.50;98.00;;;;;;4991713;28;20476;-71
2023/07/08 01:07:35;;;;;;;8.90;4.30;;;19.40;98.00;;;;;;4991547;28;20484;-71
2023/07/08 01:10:12;;;;;;;7.93;4.27;;;19.30;98.00;;;;;;4991564;28;20452;-71
2023/07/08 01:12:44;;;;;;;10.40;4.77;;;19.20;98.00;;;;;;4991487;28;20456;-71
2023/07/08 01:15:12;;;;;;;9.57;5.10;;;19.20;98.00;;;;;;4991493;28;20463;-71
2023/07/08 01:17:40;;;;;;;13.73;5.13;;;19.10;98.00;;;;;;4991391;28;20515;-71
2023/07/08 01:20:12;;;;;;;10.03;4.70;;;19.20;98.00;;;;;;4992440;28;20966;-71
2023/07/08 01:22:42;;;;;;;10.57;4.50;;;19.40;98.00;;;;;;4995090;28;20459;-71
2023/07/08 01:25:10;;;;;;;8.40;4.33;;;19.30;98.00;;;;;;4995227;28;20468;-71
2023/07/08 01:27:42;;;;;;;9.67;4.33;;;19.30;98.00;;;;;;4995020;28;20862;-71
2023/07/08 01:30:11;;;;;;;10.20;4.23;;;19.30;98.00;;;;;;4995108;28;20946;-71
2023/07/08 01:32:40;;;;;;;8.87;4.00;;;19.10;98.00;;;;;;4994932;28;20460;-71
2023/07/08 01:35:12;;;;;;;11.80;4.23;;;19.00;98.00;;;;;;4995281;28;20464;-71
2023/07/08 01:37:43;;;;;;;9.03;4.40;;;18.90;98.00;;;;;;4994988;28;20445;-71
2023/07/08 01:40:29;;;;;;;9.10;4.57;;;18.80;98.00;;;;;;4995021;28;20817;-71
2023/07/08 01:42:57;;;;;;;10.90;4.63;;;18.80;98.00;;;;;;4994907;28;20451;-71
2023/07/08 01:45:27;;;;;;;10.10;4.47;;;18.70;98.00;;;;;;4994718;28;20471;-71
2023/07/08 01:47:59;;;;;;;10.87;4.47;;;18.80;98.00;;;;;;4994725;28;20575;-71
2023/07/08 01:50:30;;;;;;;7.07;3.93;;;18.80;98.00;;;;;;4994996;28;20460;-71
2023/07/08 01:53:01;;;;;;;7.20;4.43;;;18.80;98.00;;;;;;4994648;28;20472;-71
2023/07/08 01:55:30;;;;;;;10.43;4.40;;;18.80;98.00;;;;;;4994771;28;20460;-71
2023/07/08 01:57:57;;;;;;;10.07;4.20;;;18.80;98.00;;;;;;4994659;28;20463;-71
2023/07/08 02:00:24;;;;;;;7.37;4.00;;;18.70;98.00;;;;;;4994544;28;20824;-71
2023/07/08 02:02:52;;;;;;;8.70;4.20;;;18.70;98.00;;;;;;4994586;28;20486;-71
2023/07/08 02:05:19;;;;;;;6.87;3.60;;;18.70;98.00;;;;;;4994343;28;20519;-71
2023/07/08 02:07:46;;;;;;;9.70;4.13;;;18.70;98.00;;;;;;4994103;28;20555;-71
2023/07/08 02:10:15;;;;;;;6.87;3.63;;;18.80;98.00;;;;;;4993058;28;20459;-71
2023/07/08 02:12:42;;;;;;;9.20;4.03;;;18.70;98.00;;;;;;4994215;28;20464;-71
2023/07/08 02:15:10;;;;;;;6.57;3.80;;;18.70;98.00;;;;;;4994322;28;20962;-71
2023/07/08 02:17:38;;;;;;;9.00;4.03;;;18.60;98.00;;;;;;4994206;28;20796;-71
2023/07/08 02:20:08;;;;;;;9.67;4.80;;;18.70;98.00;;;;;;4993107;28;20464;-71
2023/07/08 02:22:36;;;;;;;10.00;4.60;;;18.80;98.00;;;;;;4994024;28;20484;-71
2023/07/08 02:25:03;;;;;;;9.50;4.07;;;18.70;98.00;;;;;;4994068;28;20518;-71
2023/07/08 02:27:32;;;;;;;7.47;4.07;;;18.60;98.00;;;;;;4992462;28;20486;-71
2023/07/08 02:30:02;;;;;;;9.27;4.27;;;18.60;98.00;;;;;;4993988;28;20959;-71
2023/07/08 02:32:29;;;;;;;8.40;4.17;;;18.70;98.00;;;;;;4993715;28;20551;-71
2023/07/08 02:34:56;;;;;;;8.80;3.73;;;18.50;98.00;;;;;;4993732;28;20468;-71
2023/07/08 02:37:23;;;;;;;7.27;3.63;;;18.40;98.00;;;;;;4993705;28;20452;-71
2023/07/08 02:39:51;;;;;;;6.27;3.67;;;18.40;98.00;;;;;;4993859;28;20456;-71
2023/07/08 02:42:18;;;;;;;8.23;3.80;;;18.50;98.00;;;;;;4993710;28;20564;-71
2023/07/08 02:44:46;;;;;;;8.73;4.20;;;18.70;98.00;;;;;;4993800;28;20456;-71
2023/07/08 02:47:13;;;;;;;6.90;3.87;;;18.80;98.00;;;;;;4993519;28;20480;-71
2023/07/08 02:49:40;;;;;;;6.87;3.40;;;18.80;98.00;;;;;;4993680;28;20461;-71
2023/07/08 02:52:08;;;;;;;8.73;3.97;;;18.80;98.00;;;;;;4992653;28;20465;-71
2023/07/08 02:54:35;;;;;;;9.60;4.37;;;18.70;98.00;;;;;;4976570;28;20456;-71
2023/07/08 02:57:02;;;;;;;7.53;3.97;;;18.80;98.00;;;;;;4993420;28;20472;-71
2023/07/08 02:59:29;;;;;;;9.30;3.63;;;18.80;98.00;;;;;;4993476;28;20453;-71
2023/07/08 03:01:58;;;;;;;7.87;4.13;;;18.80;98.00;;;;;;4991985;28;20463;-71
2023/07/08 03:04:25;;;;;;;7.40;3.90;;;18.70;98.00;;;;;;4993307;28;20456;-71
2023/07/08 03:06:52;;;;;;;6.70;3.50;;;18.60;98.00;;;;;;4993166;28;20462;-71
2023/07/08 03:09:19;;;;;;;7.80;4.07;;;18.40;98.00;;;;;;4993257;28;20457;-71
2023/07/08 03:11:46;;;;;;;9.30;4.47;;;18.00;98.00;;;;;;4993193;28;20456;-71
2023/07/08 03:14:14;;;;;;;7.00;3.53;;;18.10;98.00;;;;;;4993187;28;20452;-71
2023/07/08 03:16:41;;;;;;;8.00;4.10;;;18.10;98.00;;;;;;4991799;28;20452;-71
2023/07/08 03:19:14;;;;;;;5.83;3.50;;;18.10;98.00;;;;;;4993003;28;20826;-71
2023/07/08 03:21:41;;;;;;;7.63;4.00;;;18.10;98.00;;;;;;4992927;28;20496;-71
2023/07/08 03:24:10;;;;;;;8.80;4.13;;;18.20;98.00;;;;;;4993016;28;20993;-71
2023/07/08 03:26:38;;;;;;;7.13;4.07;;;18.20;98.00;;;;;;4992764;28;20894;-71
2023/07/08 03:29:05;;;;;;;8.20;4.10;;;18.00;98.00;;;;;;4992855;28;20492;-71
2023/07/08 03:31:32;;;;;;;9.33;3.97;;;18.00;98.00;;;;;;4992768;28;20467;-71
2023/07/08 03:33:59;;;;;;;8.03;3.77;;;18.00;98.00;;;;;;4991332;28;20845;-71
2023/07/08 03:36:28;;;;;;;8.37;4.53;;;17.90;98.00;;;;;;4991575;28;20460;-71
2023/07/08 03:38:57;;;;;;;8.50;4.03;;;17.90;98.00;;;;;;4992722;28;20468;-71
2023/07/08 03:41:25;;;;;;;7.03;3.47;;;17.90;98.00;;;;;;4992662;28;20832;-71
2023/07/08 03:43:52;;;;;;;7.10;3.50;;;17.80;98.00;;;;;;4992220;28;20982;-71
2023/07/08 03:46:20;;;;;;;6.90;3.63;;;17.90;98.00;;;;;;4992823;28;20535;-71
2023/07/08 03:48:55;;;;;;;8.00;3.90;;;18.00;98.00;;;;;;4992466;28;20575;-71
2023/07/08 03:51:24;;;;;;;5.73;3.40;;;18.00;98.00;;;;;;4992619;28;20927;-71
2023/07/08 03:53:53;;;;;;;6.97;3.83;;;17.90;98.00;;;;;;4992345;28;20468;-71
2023/07/08 03:56:20;;;;;;;7.20;3.90;;;17.90;98.00;;;;;;4992315;28;20463;-71
2023/07/08 03:58:47;;;;;;;11.10;3.87;;;17.90;98.00;;;;;;4992315;28;21005;-71
2023/07/08 04:01:17;;;;;;;6.40;3.43;;;17.60;98.00;;;;;;4992247;28;20464;-71
2023/07/08 04:03:44;;;;;;;8.10;3.80;;;17.60;98.00;;;;;;4990664;28;20551;-71
2023/07/08 04:06:11;;;;;;;8.20;4.00;;;17.80;98.00;;;;;;4992109;28;20966;-71
2023/07/08 04:08:38;;;;;;;9.07;3.83;;;17.90;98.00;;;;;;4990799;28;20492;-71
2023/07/08 04:11:09;;;;;;;8.53;3.67;;;17.80;98.00;;;;;;4992165;28;20628;-71
2023/07/08 04:13:37;;;;;;;8.77;3.87;;;17.70;98.00;;;;;;4990717;28;20461;-71
2023/07/08 04:16:06;;;;;;;16.23;4.80;;;17.80;98.00;;;;;;4991996;28;20460;-71
2023/07/08 04:18:33;;;;;;;7.20;3.67;;;17.90;98.00;;;;;;4991978;28;20449;-71
2023/07/08 04:21:00;;;;;;;8.03;3.73;;;18.00;98.00;;;;;;4991920;28;20464;-71
2023/07/08 04:23:27;;;;;;;7.63;4.10;;;18.20;98.00;;;;;;4991899;28;20460;-71
2023/07/08 04:25:57;;;;;;;6.23;3.30;;;18.20;98.00;;;;;;4990642;28;20511;-71
2023/07/08 04:28:26;;;;;;;6.23;3.60;;;18.20;98.00;;;;;;4991734;28;20539;-71
2023/07/08 04:30:53;;;;;;;8.00;4.03;;;18.20;98.00;;;;;;4991942;28;20456;-71
2023/07/08 04:33:20;;;;;;;6.33;3.30;;;18.10;98.00;;;;;;4991798;28;20468;-71
2023/07/08 04:35:47;;;;;;;10.67;4.10;;;18.00;98.00;;;;;;4991796;28;20464;-71
2023/07/08 04:38:18;;;;;;;6.93;3.80;;;18.00;98.00;;;;;;4991894;28;20468;-71
2023/07/08 04:40:45;;;;;;;8.70;3.80;;;18.10;98.00;;;;;;4992316;28;20496;-71
2023/07/08 04:43:13;;;;;;;7.60;3.80;;;18.10;98.00;;;;;;4991845;28;20468;-71
2023/07/08 04:45:43;;;;;;;7.13;3.80;;;18.00;98.00;;;;;;4991937;28;20456;-71
2023/07/08 04:48:14;;;;;;;7.20;3.80;;;18.10;98.00;;;;;;4991532;28;20491;-71
2023/07/08 04:50:43;;;;;;;8.63;3.83;;;18.10;98.00;;;;;;4991754;28;20473;-71
2023/07/08 04:53:11;;;;;;;7.77;4.03;;;18.30;98.00;;;;;;4991565;28;20491;-71
2023/07/08 04:55:42;;;;;;;10.10;3.83;;;18.30;98.00;;;;;;4993403;28;20459;-71
2023/07/08 04:58:09;;;;;;;8.67;4.50;;;18.30;98.00;;;;;;4995519;28;20460;-71
2023/07/08 05:00:36;;;;;;;6.50;3.83;;;18.40;98.00;;;;;;4995591;28;20872;-71
2023/07/08 05:03:05;;;;;;;9.83;3.57;;;18.60;98.00;;;;;;4995444;28;20456;-71
2023/07/08 05:05:32;;;;;;;9.63;4.37;;;19.00;98.00;;;;;;4995545;28;20456;-71
2023/07/08 05:08:02;;;;;;;11.00;4.33;;;19.00;98.00;;;;;;4995378;28;20525;-71
2023/07/08 05:10:29;;;;;;;7.57;4.10;;;19.10;98.00;;;;;;4995406;28;20469;-71
2023/07/08 05:12:56;;;;;;;9.80;4.27;;;18.90;98.00;;;;;;4995290;28;20475;-70
2023/07/08 05:15:23;;;;;;;7.10;3.83;;;18.90;98.00;;;;;;4995389;28;20760;-71
2023/07/08 05:17:51;;;;;;;7.60;4.03;;;19.30;98.00;;;;;;4995262;28;20456;-71
2023/07/08 05:20:20;;;;;;;7.10;3.73;;;19.30;98.00;;;;;;4995263;28;20452;-71
2023/07/08 05:22:47;;;;;;;7.97;4.10;;;19.30;98.00;;;;;;4995009;28;20465;-71
2023/07/08 05:25:15;;;;;;;9.77;4.07;;;19.30;98.00;;;;;;4995228;28;20463;-71
2023/07/08 05:27:42;;;;;;;8.27;4.00;;;19.60;98.00;;;;;;4995228;28;20460;-71
2023/07/08 05:30:14;;;;;;;7.60;4.03;;;19.60;98.00;;;;;;4994122;28;20887;-71
2023/07/08 05:32:41;;;;;;;6.80;3.70;;;19.70;98.00;;;;;;4995034;28;20463;-71
2023/07/08 05:35:08;;;;;;;10.83;4.20;;;19.70;98.00;;;;;;4993833;28;20962;-71
2023/07/08 05:37:39;;;;;;;7.00;3.90;;;19.80;98.00;;;;;;4994909;28;20460;-71
2023/07/08 05:40:08;;;;;;;10.40;4.57;;;19.80;98.00;;;;;;4994749;28;20869;-71
2023/07/08 05:42:35;;;;;;;6.63;3.83;;;20.00;98.00;;;;;;4994889;28;20448;-71
2023/07/08 05:45:02;;;;;;;9.33;4.20;;;20.20;98.00;;;;;;4994796;28;20625;-71
2023/07/08 05:47:31;;;;;;;10.97;4.50;;;20.30;98.00;;;;;;4994621;28;20456;-71
2023/07/08 05:49:59;;;;;;;7.70;3.90;;;20.50;98.00;;;;;;4994737;28;20510;-71
2023/07/08 05:52:26;;;;;;;9.50;4.07;;;20.80;97.30;;;;;;4994565;28;20536;-71
2023/07/08 05:55:02;;;;;;;7.33;3.67;;;21.10;97.40;;;;;;4994706;28;20512;-71
2023/07/08 05:57:29;;;;;;;7.60;4.07;;;21.20;96.40;;;;;;4994506;28;21002;-71
2023/07/08 05:59:57;;;;;;;6.57;3.63;;;21.20;95.00;;;;;;4993472;28;20527;-71
2023/07/08 06:02:25;;;;;;;6.90;4.00;;;21.20;95.70;;;;;;4994294;28;21138;-71
2023/07/08 06:04:53;;;;;;;7.47;3.97;;;21.40;95.80;;;;;;4994533;28;20456;-71
2023/07/08 06:07:20;;;;;;;13.80;4.40;;;21.50;95.40;;;;;;4993726;28;20468;-71
2023/07/08 06:09:47;;;;;;;7.27;4.20;;;21.60;95.80;;;;;;4994320;28;20488;-71
2023/07/08 06:12:16;;;;;;;7.50;4.20;;;21.70;96.00;;;;;;4994050;28;20464;-71
2023/07/08 06:14:43;;;;;;;7.30;3.87;;;21.80;95.40;;;;;;4994232;28;20974;-71
2023/07/08 06:17:10;;;;;;;9.40;4.70;;;22.00;94.20;;;;;;4993999;28;21001;-71
2023/07/08 06:19:37;;;;;;;16.73;4.33;;;22.00;94.60;;;;;;4994321;28;20829;-71
2023/07/08 06:22:04;;;;;;;11.20;4.23;;;22.00;94.00;;;;;;4994114;28;20472;-71
2023/07/08 06:24:32;;;;;;;10.40;4.10;;;21.90;94.00;;;;;;4994214;28;20460;-70
2023/07/08 06:26:59;;;;;;;9.10;3.90;;;21.90;94.70;;;;;;4992988;28;20483;-70
2023/07/08 06:29:28;;;;;;;7.20;4.03;;;21.80;94.80;;;;;;4994217;28;20920;-65
2023/07/08 06:31:55;;;;;;;7.73;4.33;;;21.90;94.90;;;;;;4993919;28;20456;-65
2023/07/08 06:34:23;;;;;;;9.20;4.43;;;22.10;95.20;;;;;;4993685;28;20475;-65
2023/07/08 06:36:51;;;;;;;8.03;4.00;;;22.20;95.20;;;;;;4993708;28;20464;-65
2023/07/08 06:39:18;;;;;;;7.70;4.03;;;22.50;94.90;;;;;;4993783;28;20488;-65
2023/07/08 06:41:46;;;;;;;9.40;4.77;;;22.80;93.00;;;;;;4993807;28;20460;-65
2023/07/08 06:44:13;;;;;;;7.47;4.30;;;23.00;92.10;;;;;;4993607;28;20464;-65
2023/07/08 06:46:42;;;;;;;8.50;4.87;;;23.10;91.40;;;;;;4993820;28;20464;-65
2023/07/08 06:49:11;;;;;;;6.80;3.80;;;23.10;91.20;;;;;;4993342;28;20484;-64
2023/07/08 06:51:40;;;;;;;10.50;3.87;;;23.10;91.50;;;;;;4993693;28;20456;-63
2023/07/08 06:54:11;;;;;;;8.13;4.20;;;23.30;95.50;;;;;;4993516;28;20804;-63
2023/07/08 06:56:39;;;;;;;7.00;3.77;;;23.50;95.60;;;;;;4993408;28;20460;-63
2023/07/08 06:59:06;;;;;;;7.40;4.00;;;23.60;94.70;;;;;;4993314;28;20496;-63
2023/07/08 07:01:33;;;;;;;7.30;4.00;;;23.70;94.80;;;;;;4993441;28;20456;-63
2023/07/08 07:04:02;;;;;;;8.33;4.43;;;23.90;94.30;;;;;;4993716;28;20626;-63
2023/07/08 07:06:29;;;;;;;7.90;4.40;;;23.90;91.90;;;;;;4993396;28;20876;-63
2023/07/08 07:08:57;;;;;;;7.07;4.00;;;23.80;92.50;;;;;;4993129;28;20488;-63
2023/07/08 07:11:25;;;;;;;14.30;4.57;;;24.00;93.10;;;;;;4993429;28;20465;-63
2023/07/08 07:13:52;;;;;;;11.60;4.20;;;24.20;93.20;;;;;;4993129;28;20457;-63
2023/07/08 07:16:19;;;;;;;8.70;3.73;;;24.40;92.40;;;;;;4993110;28;20510;-63
2023/07/08 07:18:46;;;;;;;9.73;4.10;;;24.50;89.20;;;;;;4992481;28;20550;-64
2023/07/08 07:21:15;;;;;;;10.40;4.37;;;24.50;89.90;;;;;;4993153;28;20860;-63
2023/07/08 07:23:42;;;;;;;10.03;4.30;;;24.60;87.40;;;;;;4993358;28;20515;-64
2023/07/08 07:26:09;;;;;;;8.20;3.83;;;24.70;89.00;;;;;;4991680;28;20468;-63
2023/07/08 07:28:36;;;;;;;7.00;4.03;;;24.90;86.90;;;;;;4991748;28;20492;-64
2023/07/08 07:31:06;;;;;;;6.73;3.70;;;24.90;86.00;;;;;;4992361;28;20519;-63
2023/07/08 07:33:33;;;;;;;8.53;4.30;;;25.00;88.00;;;;;;4992303;28;20479;-64
2023/07/08 07:36:00;;;;;;;8.17;4.80;;;25.00;86.80;;;;;;4991867;28;20520;-63
2023/07/08 07:38:30;;;;;;;8.17;3.93;;;25.10;86.70;;;;;;4992463;28;20978;-63
2023/07/08 07:40:59;;;;;;;8.10;4.37;;;25.20;84.80;;;;;;4992602;28;20464;-63
2023/07/08 07:43:27;;;;;;;9.03;4.00;;;25.20;85.30;;;;;;4992069;28;20861;-63
2023/07/08 07:45:54;;;;;;;10.33;3.90;;;25.20;85.50;;;;;;4991446;28;20502;-63
2023/07/08 07:48:23;;;;;;;7.50;3.83;;;25.20;86.10;;;;;;4991224;28;20448;-63
2023/07/08 07:50:53;;;;;;;6.30;4.10;;;25.20;85.70;;;;;;4991188;28;20976;-63
2023/07/08 07:53:20;;;;;;;9.60;4.33;;;25.20;86.10;;;;;;4992546;28;20798;-63
2023/07/08 07:56:17;;;;;;;8.80;3.97;;;25.30;85.50;;;;;;4992364;28;20511;-63
2023/07/08 07:58:44;;;;;;;6.70;4.13;;;25.30;86.10;;;;;;4992326;28;20472;-63
2023/07/08 08:01:13;;;;;;;8.90;4.17;;;25.40;87.00;;;;;;4992275;28;20452;-63
2023/07/08 08:03:40;;;;;;;7.13;3.90;;;25.40;86.40;;;;;;4992352;28;20519;-64
2023/07/08 08:06:07;;;;;;;7.80;4.20;;;25.50;85.80;;;;;;4992175;28;20467;-65
2023/07/08 08:08:34;;;;;;;8.07;4.20;;;25.50;86.50;;;;;;4990859;28;20974;-65
2023/07/08 08:11:01;;;;;;;8.77;4.20;;;25.50;85.80;;;;;;4992303;28;20461;-65
2023/07/08 08:13:30;;;;;;;6.27;3.70;;;25.60;85.90;;;;;;4991800;28;20981;-65
2023/07/08 08:15:58;;;;;;;6.90;3.77;;;25.60;85.50;;;;;;4992128;28;20456;-65
2023/07/08 08:18:25;;;;;;;7.70;3.87;;;25.60;86.10;;;;;;4991808;28;20547;-65
2023/07/08 08:20:52;;;;;;;6.20;3.90;;;25.80;86.70;;;;;;4992341;28;20459;-65
2023/07/08 08:23:19;;;;;;;6.70;3.57;;;26.00;86.60;;;;;;4992241;28;20463;-65
2023/07/08 08:25:46;;;;;;;7.40;3.60;;;26.20;84.80;;;;;;4992097;28;20456;-65
2023/07/08 08:28:14;;;;;;;7.80;4.00;;;26.50;83.70;;;;;;4991736;28;20456;-65
2023/07/08 08:30:42;;;;;;;9.70;4.30;;;26.70;83.60;;;;;;4991708;28;20542;-66
2023/07/08 08:33:09;;;;;;;8.13;4.30;;;26.90;82.80;;;;;;4991343;28;20460;-66
2023/07/08 08:35:38;;;;;;;9.33;4.00;;;27.00;81.70;;;;;;4991634;28;20492;-66
2023/07/08 08:38:05;;;;;;;8.13;4.10;;;27.00;82.30;;;;;;4992383;28;20826;-65
2023/07/08 08:40:34;;;;;;;9.10;4.30;;;27.10;82.60;;;;;;4991349;28;20459;-65
2023/07/08 08:43:04;;;;;;;5.90;3.77;;;27.30;81.60;;;;;;4975444;28;20468;-65
2023/07/08 08:45:38;;;;;;;7.40;3.93;;;27.40;81.60;;;;;;4992519;28;20457;-66
2023/07/08 08:48:11;;;;;;;6.90;4.30;;;27.60;81.30;;;;;;4992601;28;20464;-66
2023/07/08 08:50:45;;;;;;;8.53;3.90;;;27.50;81.20;;;;;;4992511;28;20491;-65
2023/07/08 08:53:15;;;;;;;8.80;4.63;;;27.60;80.70;;;;;;4991376;28;20457;-65
2023/07/08 08:55:42;;;;;;;7.27;3.97;;;27.90;80.30;;;;;;4992585;28;20464;-65
2023/07/08 08:58:23;;;;;;;8.73;4.13;;;28.00;80.60;;;;;;4992448;28;20487;-66
2023/07/08 09:00:56;;;;;;;9.33;4.13;;;28.20;79.10;;;;;;4992721;28;20460;-66
2023/07/08 09:03:38;;;;;;;7.97;3.77;;;28.30;80.00;;;;;;4992521;28;20468;-65
2023/07/08 09:06:12;;;;;;;7.63;3.80;;;28.40;79.00;;;;;;4992657;28;20848;-65
2023/07/08 09:08:43;;;;;;;8.10;4.10;;;28.40;79.30;;;;;;4992376;28;20491;-65
2023/07/08 09:11:19;;;;;;;9.17;4.30;;;28.20;78.00;;;;;;4991341;28;20552;-65
2023/07/08 09:13:47;;;;;;;8.40;4.20;;;28.20;78.30;;;;;;4992409;28;20480;-66
2023/07/08 09:16:21;;;;;;;7.67;4.20;;;28.30;79.00;;;;;;4992670;28;20460;-66
2023/07/08 09:19:08;;;;;;;6.53;3.93;;;28.60;77.90;;;;;;4992358;28;20468;-65
2023/07/08 09:21:40;;;;;;;7.80;4.63;;;28.90;77.60;;;;;;4992313;28;20464;-64
2023/07/08 09:24:15;;;;;;;11.77;3.80;;;29.20;76.50;;;;;;4992207;28;20468;-65
2023/07/08 09:26:42;;;;;;;5.97;3.50;;;29.40;76.80;;;;;;4992046;28;20937;-65
2023/07/08 09:29:11;;;;;;;5.77;3.47;;;29.80;76.70;;;;;;4990801;28;20484;-65
2023/07/08 09:31:42;;;;;;;7.13;2.83;;;30.10;74.60;;;;;;4992060;28;20483;-66
2023/07/08 09:34:13;;;;;;;6.30;3.47;;;30.30;74.10;;;;;;4991859;28;20460;-66
2023/07/08 09:36:45;;;;;;;6.03;3.50;;;30.30;74.10;;;;;;4992077;28;20475;-66
2023/07/08 09:39:15;;;;;;;6.60;3.50;;;30.20;74.10;;;;;;4991949;28;20452;-66
2023/07/08 09:41:44;;;;;;;7.30;3.80;;;30.00;74.60;;;;;;4992337;28;20962;-66
2023/07/08 09:44:25;;;;;;;7.90;4.10;;;29.90;75.00;;;;;;4995444;28;20931;-66
2023/07/08 09:46:52;;;;;;;9.27;3.77;;;30.00;74.40;;;;;;4995582;28;20471;-66
2023/07/08 09:49:29;;;;;;;4.50;3.10;;;30.20;75.80;;;;;;4995201;28;20538;-66
2023/07/08 09:51:56;;;;;;;4.90;3.00;;;30.40;73.80;;;;;;4995367;28;20478;-66
2023/07/08 09:54:26;;;;;;;4.27;2.93;;;30.70;74.00;;;;;;4995048;28;20460;-65
2023/07/08 09:57:00;;;;;;;8.27;3.60;;;30.70;72.90;;;;;;4994339;28;20467;-66
2023/07/08 09:59:31;;;;;;;4.67;3.43;;;30.70;73.00;;;;;;4995462;28;20492;-65
2023/07/08 10:02:02;;;;;;;6.07;3.03;;;30.50;73.70;;;;;;4994312;28;20836;-66
2023/07/08 10:04:31;;;;;;;7.83;3.37;;;30.40;74.00;;;;;;4995371;28;20552;-66
2023/07/08 10:07:01;;;;;;;6.00;3.37;;;30.50;73.80;;;;;;5003591;28;20456;-63
2023/07/08 10:12:01;;;;;;;6.20;3.47;;;30.80;74.40;;;;;;5001895;28;20821;-63
2023/07/08 10:14:34;;;;;;;6.77;3.53;;;30.80;74.50;;;;;;4998480;28;20491;-63
2023/07/08 10:17:01;;;;;;;6.70;3.30;;;30.70;74.80;;;;;;5192823;22;20894;-63
2023/07/08 10:19:30;;;;;;;5.37;3.73;;;30.60;74.80;;;;;;4994597;28;20460;-63
2023/07/08 10:22:10;;;;;;;8.53;3.27;;;30.50;74.80;;;;;;4994945;28;20469;-64
2023/07/08 10:24:47;;;;;;;4.77;3.33;;;30.30;75.80;;;;;;4994785;28;20463;-64
2023/07/08 10:27:26;;;;;;;5.63;3.20;;;30.40;76.10;;;;;;4993695;28;20460;-63
2023/07/08 10:30:00;;;;;;;8.67;3.10;;;30.50;73.80;;;;;;4993998;28;20480;-63
2023/07/08 10:32:44;;;;;;;3.60;2.60;;;30.40;72.80;;;;;;4994452;28;20456;-63
2023/07/08 10:35:21;;;;;;;3.77;2.70;;;30.30;73.30;;;;;;4976359;28;20487;-63
2023/07/08 10:38:03;;;;;;;4.43;2.77;;;30.30;72.90;;;;;;4994069;28;20456;-63
2023/07/08 10:40:40;;;;;;;7.27;3.43;;;30.20;74.00;;;;;;4993962;28;20511;-61
2023/07/08 10:43:49;;;;;;;6.27;3.10;;;30.10;74.50;;;;;;4993804;28;20468;-62
2023/07/08 10:46:33;;;;;;;7.03;3.47;;;30.00;75.80;;;;;;4993782;28;20559;-62
2023/07/08 10:49:29;;;;;;;6.63;3.83;;;30.00;76.50;;;;;;4993687;28;20464;-61
2023/07/08 10:52:05;;;;;;;6.37;3.90;;;30.20;76.70;;;;;;4993999;28;20472;-62
2023/07/08 10:54:46;;;;;;;7.13;4.13;;;30.50;76.70;;;;;;4993129;28;21061;-62
2023/07/08 10:57:27;;;;;;;4.93;3.10;;;30.70;75.80;;;;;;4994274;28;20487;-61
2023/07/08 11:00:04;;;;;;;6.53;3.40;;;31.00;74.10;;;;;;4994130;28;20510;-63
2023/07/08 11:03:04;;;;;;;5.43;3.20;;;31.10;73.50;;;;;;4992794;28;20487;-63
2023/07/08 11:05:41;;;;;;;4.70;2.77;;;31.30;73.30;;;;;;4994482;28;20487;-62
2023/07/08 11:08:17;;;;;;;4.22;2.80;;;31.60;72.60;;;;;;4994145;28;20456;-63
2023/07/08 11:10:51;;;;;;;3.00;2.30;;;32.10;72.00;;;;;;4994345;28;20224;-62
2023/07/08 11:13:21;;;;;;;7.47;2.50;;;32.20;68.60;;;;;;4993833;28;20535;-62
2023/07/08 11:15:52;;;;;;;2.70;2.20;;;32.20;67.40;;;;;;4993942;28;20467;-62
2023/07/08 11:18:25;;;;;;;9.37;3.00;;;32.20;67.80;;;;;;4993483;28;20475;-62
2023/07/08 11:20:59;;;;;;;3.47;2.40;;;32.20;68.50;;;;;;4993772;28;20456;-62
2023/07/08 11:23:33;;;;;;;4.37;2.63;;;32.30;67.10;;;;;;4993592;28;20523;-62
2023/07/08 11:26:12;;;;;;;4.30;2.40;;;32.50;67.20;;;;;;4992551;28;20468;-62
2023/07/08 11:28:39;;;;;;;4.57;2.50;;;32.70;67.70;;;;;;4993680;28;20526;-63
2023/07/08 11:31:07;;;;;;;4.70;2.43;;;33.00;66.80;;;;;;4993442;28;20495;-62
2023/07/08 11:33:35;;;;;;;3.87;2.33;;;33.10;65.50;;;;;;4994077;28;20611;-62
2023/07/08 11:36:04;;;;;;;3.17;2.40;;;33.50;67.30;;;;;;4993158;28;20468;-62
2023/07/08 11:38:38;;;;;;;3.53;2.23;;;33.80;65.80;;;;;;4991577;28;20460;-62
2023/07/08 11:41:14;;;;;;;2.70;1.93;;;33.80;65.30;;;;;;4992900;28;20534;-63
2023/07/08 11:43:47;;;;;;;3.37;2.50;;;33.80;63.90;;;;;;4992647;28;20526;-62
2023/07/08 11:46:19;;;;;;;2.87;2.10;;;33.80;63.90;;;;;;4992755;28;20994;-62
2023/07/08 11:48:49;;;;;;;3.03;2.33;;;33.80;64.70;;;;;;4992594;28;20672;-62
2023/07/08 11:51:21;;;;;;;4.97;2.40;;;34.00;65.30;;;;;;4992546;28;20477;-63
2023/07/08 11:53:51;;;;;;;2.60;2.03;;;34.00;63.80;;;;;;4991384;28;20460;-63
2023/07/08 11:56:24;;;;;;;2.93;2.30;;;34.20;64.00;;;;;;4992926;28;20462;-61
2023/07/08 11:59:07;;;;;;;5.10;2.20;;;34.30;64.50;;;;;;4991475;28;20460;-62
2023/07/08 12:01:41;;;;;;;4.30;2.30;;;34.50;63.40;;;;;;4990133;28;20888;-63
2023/07/08 12:04:25;;;;;;;3.07;2.30;;;34.40;62.70;;;;;;4992373;28;20850;-63
2023/07/08 12:07:13;;;;;;;4.70;2.53;;;34.20;64.00;;;;;;4991487;28;20897;-61
2023/07/08 12:09:49;;;;;;;4.40;2.20;;;34.40;63.00;;;;;;4992211;28;20496;-63
2023/07/08 12:12:23;;;;;;;2.60;2.17;;;34.40;62.80;;;;;;4992269;28;20562;-62
2023/07/08 12:14:54;;;;;;;3.30;2.30;;;34.20;63.30;;;;;;4992264;28;20463;-61
2023/07/08 12:17:22;;;;;;;3.30;2.40;;;34.10;63.20;;;;;;4991930;28;20468;-63
2023/07/08 12:19:50;;;;;;;3.17;2.37;;;34.20;63.50;;;;;;4991944;28;20463;-63
2023/07/08 12:22:18;;;;;;;2.67;2.30;;;34.30;63.20;;;;;;4991986;28;20841;-62
2023/07/08 12:24:48;;;;;;;4.17;2.50;;;34.50;63.40;;;;;;4997527;28;20455;-62
2023/07/08 12:27:15;;;;;;;3.27;2.20;;;34.80;61.80;;;;;;5011832;28;20478;-63
2023/07/08 12:29:43;;;;;;;2.70;2.10;;;34.80;62.20;;;;;;5011219;28;20463;-63
2023/07/08 12:32:14;;;;;;;3.33;2.37;;;34.80;62.40;;;;;;4993695;28;20474;-62
2023/07/08 12:34:42;;;;;;;3.00;2.10;;;35.10;62.90;;;;;;5011254;28;20974;-62
2023/07/08 12:37:14;;;;;;;5.60;2.30;;;35.40;61.10;;;;;;5010306;28;20500;-62
2023/07/08 12:39:41;;;;;;;3.70;2.30;;;35.40;60.80;;;;;;5011438;28;20554;-62
2023/07/08 12:42:14;;;;;;;2.63;2.20;;;35.40;62.10;;;;;;5011658;28;20831;-62
2023/07/08 12:44:44;;;;;;;3.37;2.07;;;35.70;62.00;;;;;;5011474;28;21012;-63
2023/07/08 12:47:11;;;;;;;4.60;2.67;;;36.00;61.10;;;;;;5011382;28;20478;-62
2023/07/08 12:49:38;;;;;;;2.97;2.40;;;36.30;60.40;;;;;;5011426;28;20670;-63
2023/07/08 12:52:06;;;;;;;3.30;2.60;;;36.40;59.70;;;;;;5010256;28;20511;-62
2023/07/08 12:54:34;;;;;;;3.80;2.37;;;36.50;60.00;;;;;;5011761;28;20816;-62
2023/07/08 12:57:04;;;;;;;3.53;2.70;;;36.70;59.80;;;;;;5011734;28;20463;-63
2023/07/08 12:59:33;;;;;;;5.23;2.67;;;36.80;60.00;;;;;;5011217;28;20471;-62
2023/07/08 13:02:00;;;;;;;3.27;2.13;;;36.80;60.20;;;;;;5011154;28;20485;-63
2023/07/08 13:04:29;;;;;;;3.17;2.40;;;37.00;58.40;;;;;;5010963;28;20961;-62